Time;durP1;ratioP1;P1;durP2;ratioP2;P2;SDS_P1;SDS_P2;PMS_P1;PMS_P2;Temp;Humidity;BMP_temperature;BMP_pressure;BME280_temperature;BME280_humidity;BME280_pressure;Samples;Min_cycle;Max_cycle;Signal;HPM_P1;HPM_P2
2023/05/22 00:04:21;;;;;;;3.90;3.30;;;;;;;12.78;55.13;99867.03;436403;1251;140634;-62
2023/05/22 00:14:27;;;;;;;3.30;2.70;;;;;;;12.65;55.72;99864.26;436787;1251;140230;-62
2023/05/22 00:24:33;;;;;;;5.80;3.50;;;;;;;12.56;56.07;99855.91;436588;1253;139781;-62
2023/05/22 00:34:39;;;;;;;6.30;2.60;;;;;;;12.51;56.41;99845.35;436785;1250;140149;-62
2023/05/22 00:44:44;;;;;;;4.30;2.70;;;;;;;12.47;56.51;99837.68;436886;1252;138687;-63
2023/05/22 00:54:53;;;;;;;3.30;2.30;;;;;;;12.46;56.65;99834.45;436740;1253;138700;-62
2023/05/22 01:04:59;;;;;;;3.40;2.40;;;;;;;12.38;56.87;99832.48;437005;1251;138555;-62
2023/05/22 01:15:16;;;;;;;3.20;2.50;;;;;;;12.36;57.03;99837.73;437014;1248;138221;-62
2023/05/22 01:25:42;;;;;;;3.40;2.80;;;;;;;12.23;57.10;99835.60;437324;1252;138404;-61
2023/05/22 01:35:52;;;;;;;3.40;2.20;;;;;;;12.07;57.61;99833.34;437812;1253;138388;-61
2023/05/22 01:46:00;;;;;;;6.10;3.00;;;;;;;12.00;57.88;99837.66;437787;1248;139587;-62
2023/05/22 01:56:12;;;;;;;3.50;2.70;;;;;;;11.88;58.07;99839.27;437424;1248;138782;-62
2023/05/22 02:06:19;;;;;;;3.70;3.10;;;;;;;11.71;58.42;99834.40;436563;1253;138855;-62
2023/05/22 02:16:27;;;;;;;3.80;2.30;;;;;;;11.59;58.75;99833.26;436758;1250;140259;-62
2023/05/22 02:26:33;;;;;;;2.90;2.40;;;;;;;11.55;58.95;99836.36;436349;1251;138821;-63
2023/05/22 02:36:40;;;;;;;3.10;2.70;;;;;;;11.54;59.24;99831.63;436140;1251;140278;-61
2023/05/22 02:46:46;;;;;;;3.60;2.60;;;;;;;11.56;59.27;99823.79;436045;1254;139255;-62
2023/05/22 02:56:52;;;;;;;4.00;2.70;;;;;;;11.59;59.33;99817.60;436818;1250;138813;-62
2023/05/22 03:06:57;;;;;;;2.50;2.20;;;;;;;11.83;59.35;99819.63;436324;1253;139545;-61
2023/05/22 03:17:03;;;;;;;6.00;2.70;;;;;;;12.59;58.64;99819.17;436593;1251;140154;-62
2023/05/22 03:27:10;;;;;;;3.30;3.00;;;;;;;13.19;57.76;99813.98;436627;1251;138297;-62
2023/05/22 03:37:16;;;;;;;4.40;3.50;;;;;;;13.67;56.61;99816.14;437126;1253;139355;-63
2023/05/22 03:47:22;;;;;;;2.80;2.30;;;;;;;14.19;55.52;99813.21;436388;1251;139816;-62
2023/05/22 03:57:28;;;;;;;5.60;2.80;;;;;;;14.60;54.54;99810.84;436745;1250;139328;-62
2023/05/22 04:07:34;;;;;;;2.60;2.20;;;;;;;15.48;53.84;99808.15;436500;1249;139388;-64
2023/05/22 04:17:41;;;;;;;4.20;2.90;;;;;;;21.09;49.46;99804.91;436448;1251;139526;-62
2023/05/22 04:27:47;;;;;;;4.10;2.60;;;;;;;26.16;42.39;99798.04;437111;1251;138755;-64
2023/05/22 04:37:54;;;;;;;3.80;2.80;;;;;;;28.94;37.23;99786.87;436540;1251;138225;-63
2023/05/22 04:48:01;;;;;;;4.40;3.00;;;;;;;29.05;34.04;99787.52;436407;1251;139087;-63
2023/05/22 04:58:06;;;;;;;;;;;;;;;28.67;32.84;99789.66;436868;1253;139025;-63
2023/05/22 05:08:11;;;;;;;4.00;2.70;;;;;;;30.16;31.86;99793.20;436760;1251;125163;-63
2023/05/22 05:18:18;;;;;;;3.20;2.70;;;;;;;30.03;30.54;99790.73;436060;1254;139428;-63
2023/05/22 05:28:25;;;;;;;2.70;2.50;;;;;;;30.58;29.73;99788.89;436627;1251;138545;-62
2023/05/22 05:38:30;;;;;;;5.40;2.50;;;;;;;31.08;29.02;99797.36;438123;1251;138580;-63
2023/05/22 05:48:36;;;;;;;6.70;2.80;;;;;;;36.42;26.86;99794.15;435901;1251;139049;-67
2023/05/22 05:58:42;;;;;;;2.70;2.50;;;;;;;42.37;23.06;99782.77;435622;1251;138766;-63
2023/05/22 06:08:48;;;;;;;2.50;2.20;;;;;;;45.71;20.36;99771.64;436183;1253;138701;-64
2023/05/22 06:18:55;;;;;;;3.30;2.60;;;;;;;47.62;18.25;99764.23;437047;1248;138786;-63
2023/05/22 06:29:01;;;;;;;2.50;1.70;;;;;;;49.26;16.76;99758.71;437014;1253;138286;-63
2023/05/22 06:39:08;;;;;;;2.40;2.20;;;;;;;50.65;15.05;99757.46;436667;1249;139957;-64
2023/05/22 06:49:14;;;;;;;3.70;2.20;;;;;;;50.49;14.06;99763.37;436952;1251;138538;-65
2023/05/22 06:59:21;;;;;;;3.40;2.50;;;;;;;50.38;13.70;99759.52;437310;1249;139494;-64
2023/05/22 07:09:28;;;;;;;2.90;2.70;;;;;;;50.89;13.35;99758.88;437497;1251;138137;-63
2023/05/22 07:19:35;;;;;;;3.20;3.00;;;;;;;51.79;12.41;99757.48;437784;1253;169894;-63
2023/05/22 07:29:41;;;;;;;3.60;3.30;;;;;;;50.24;12.13;99750.08;437238;1251;138680;-62
2023/05/22 07:39:47;;;;;;;3.60;3.10;;;;;;;49.06;11.94;99748.20;437411;1249;139973;-63
2023/05/22 07:49:54;;;;;;;2.30;2.00;;;;;;;47.28;12.24;99749.30;437437;1253;138834;-63
2023/05/22 08:00:05;;;;;;;4.40;1.30;;;;;;;43.86;13.15;99742.98;437122;1253;138271;-62
2023/05/22 08:10:16;;;;;;;1.50;1.40;;;;;;;35.58;16.07;99748.25;436821;1253;138450;-62
2023/05/22 08:20:22;;;;;;;2.40;1.80;;;;;;;30.27;18.96;99760.30;437084;1251;138279;-63
2023/05/22 08:30:28;;;;;;;2.30;1.40;;;;;;;27.74;21.07;99760.05;436796;1253;138526;-62
2023/05/22 08:40:37;;;;;;;3.30;1.30;;;;;;;26.78;22.40;99758.61;436493;1251;139145;-62
2023/05/22 08:50:44;;;;;;;1.00;1.00;;;;;;;25.85;23.07;99751.66;437191;1251;138489;-63
2023/05/22 09:00:52;;;;;;;2.00;1.60;;;;;;;25.18;23.87;99745.33;436820;1251;140049;-64
2023/05/22 09:10:58;;;;;;;2.00;1.10;;;;;;;24.78;24.89;99740.22;437414;1251;138655;-63
2023/05/22 09:21:06;;;;;;;1.30;1.20;;;;;;;24.60;25.42;99730.41;437051;1251;138257;-62
2023/05/22 09:31:32;;;;;;;3.70;1.90;;;;;;;24.31;25.44;99723.97;439825;1251;138437;-61
2023/05/22 09:41:39;;;;;;;3.30;1.50;;;;;;;24.22;25.96;99717.37;436625;1253;138968;-61
2023/05/22 09:51:46;;;;;;;;;;;;;;;24.03;26.14;99717.28;437482;1251;139865;-62
2023/05/22 10:01:53;;;;;;;3.30;1.20;;;;;;;23.90;26.71;99714.90;437089;1253;124578;-62
2023/05/22 10:12:04;;;;;;;3.30;2.40;;;;;;;23.90;26.70;99707.55;437662;1252;141895;-63
2023/05/22 10:22:13;;;;;;;3.50;2.00;;;;;;;24.02;27.22;99702.23;436679;1256;140128;-63
2023/05/22 10:32:38;;;;;;;1.60;1.50;;;;;;;24.07;26.98;99700.33;437437;1251;138187;-64
2023/05/22 10:42:45;;;;;;;10.00;3.10;;;;;;;23.72;27.05;99692.67;436827;1256;138322;-57
2023/05/22 10:53:22;;;;;;;2.70;1.30;;;;;;;23.52;27.26;99686.99;436961;1252;138507;-63
2023/05/22 11:03:28;;;;;;;2.40;1.90;;;;;;;23.41;27.07;99678.08;436736;1254;138745;-62
2023/05/22 11:13:35;;;;;;;1.40;1.30;;;;;;;23.41;27.18;99663.95;437185;1253;139719;-63
2023/05/22 11:23:41;;;;;;;5.50;1.60;;;;;;;23.39;27.71;99653.42;437336;1253;139190;-64
2023/05/22 11:33:48;;;;;;;3.30;2.00;;;;;;;23.34;27.89;99642.61;437650;1253;138973;-63
2023/05/22 11:43:54;;;;;;;1.90;1.80;;;;;;;23.18;28.21;99632.55;437427;1253;138734;-62
2023/05/22 11:54:00;;;;;;;4.70;2.10;;;;;;;23.15;28.77;99631.62;437349;1253;138601;-62
2023/05/22 12:04:07;;;;;;;2.70;2.00;;;;;;;22.96;28.87;99632.16;437168;1254;140863;-63
2023/05/22 12:14:13;;;;;;;2.80;1.80;;;;;;;22.84;29.00;99627.14;436247;1255;138753;-61
2023/05/22 12:24:22;;;;;;;2.50;2.00;;;;;;;22.73;28.89;99620.89;436244;1256;138812;-63
2023/05/22 12:34:32;;;;;;;1.70;1.60;;;;;;;22.88;29.28;99619.84;438690;1255;140374;-62
2023/05/22 12:44:40;;;;;;;6.10;1.90;;;;;;;22.99;29.48;99615.38;436760;1254;138695;-63
2023/05/22 12:54:46;;;;;;;1.60;1.40;;;;;;;22.95;29.86;99607.41;436469;1252;138284;-62
2023/05/22 13:04:52;;;;;;;4.00;2.70;;;;;;;23.05;29.73;99601.44;438315;1251;139789;-63
2023/05/22 13:14:58;;;;;;;2.10;2.00;;;;;;;23.19;29.24;99596.77;452785;1251;138586;-62
2023/05/22 13:25:04;;;;;;;3.70;1.90;;;;;;;23.31;29.20;99593.51;437526;1254;138649;-61
2023/05/22 13:35:11;;;;;;;2.20;2.00;;;;;;;23.60;29.36;99589.95;436402;1251;139219;-60
2023/05/22 13:45:17;;;;;;;1.90;1.80;;;;;;;23.66;29.30;99574.70;437493;1251;138779;-62
2023/05/22 13:55:23;;;;;;;2.40;2.20;;;;;;;23.65;29.64;99560.88;436554;1253;138264;-62
2023/05/22 14:05:30;;;;;;;6.80;2.00;;;;;;;23.30;29.78;99556.64;436515;1251;138412;-63
2023/05/22 14:15:36;;;;;;;5.70;2.30;;;;;;;22.80;30.07;99547.92;436685;1251;138779;-62
2023/05/22 14:25:43;;;;;;;2.00;1.60;;;;;;;22.52;29.97;99540.86;436506;1251;138616;-62
2023/05/22 14:35:50;;;;;;;2.30;1.50;;;;;;;22.24;29.69;99534.06;436106;1254;139665;-62
2023/05/22 14:45:56;;;;;;;3.10;1.80;;;;;;;22.07;29.85;99528.23;436011;1254;139166;-62
2023/05/22 14:56:03;;;;;;;2.80;2.00;;;;;;;21.90;30.12;99523.39;436000;1251;138206;-62
2023/05/22 15:06:09;;;;;;;2.40;2.00;;;;;;;21.83;30.68;99518.83;437159;1249;140234;-63
2023/05/22 15:16:15;;;;;;;1.80;1.30;;;;;;;21.60;30.88;99514.79;436894;1251;139772;-62
2023/05/22 15:26:21;;;;;;;1.90;1.70;;;;;;;21.46;31.09;99507.38;436827;1253;139983;-63
2023/05/22 15:36:29;;;;;;;5.60;4.20;;;;;;;21.40;31.51;99496.27;437145;1252;138710;-62
2023/05/22 15:46:35;;;;;;;3.10;1.80;;;;;;;21.47;31.90;99483.68;437494;1251;138891;-62
2023/05/22 15:56:40;;;;;;;2.10;1.90;;;;;;;21.39;31.74;99475.55;436675;1253;138171;-62
2023/05/22 16:06:46;;;;;;;2.00;1.80;;;;;;;21.24;32.10;99471.63;436584;1251;138960;-62
2023/05/22 16:16:52;;;;;;;3.00;1.90;;;;;;;21.11;32.17;99467.11;436545;1251;138535;-62
2023/05/22 16:26:59;;;;;;;3.10;1.50;;;;;;;21.05;32.20;99460.52;436321;1251;138395;-65
2023/05/22 16:37:05;;;;;;;3.40;1.80;;;;;;;20.97;32.08;99460.43;436602;1253;139733;-62
2023/05/22 16:47:11;;;;;;;3.70;1.70;;;;;;;20.83;32.79;99467.61;436165;1254;139015;-62
2023/05/22 16:57:17;;;;;;;4.50;2.20;;;;;;;20.68;33.12;99475.80;436702;1251;138361;-61
2023/05/22 17:07:24;;;;;;;4.60;2.50;;;;;;;20.63;33.40;99475.35;437073;1251;139807;-63
2023/05/22 17:17:29;;;;;;;4.20;3.70;;;;;;;20.59;33.67;99480.54;437812;1250;139284;-62
2023/05/22 17:27:35;;;;;;;3.20;2.50;;;;;;;20.27;34.09;99481.81;436962;1252;138999;-62
2023/05/22 17:37:41;;;;;;;3.30;2.30;;;;;;;19.97;34.90;99472.35;437084;1253;138213;-63
2023/05/22 17:47:48;;;;;;;2.80;2.20;;;;;;;19.63;35.53;99465.52;436858;1251;138741;-62
2023/05/22 17:57:54;;;;;;;3.50;2.30;;;;;;;19.33;36.33;99464.33;437109;1248;139552;-63
2023/05/22 18:08:00;;;;;;;7.90;3.30;;;;;;;19.04;36.98;99464.64;436491;1253;138291;-63
2023/05/22 18:18:06;;;;;;;4.40;2.30;;;;;;;18.70;37.53;99459.33;436766;1251;138872;-63
2023/05/22 18:28:12;;;;;;;4.80;2.50;;;;;;;18.37;37.95;99461.99;437542;1251;138483;-64
2023/05/22 18:38:18;;;;;;;6.20;3.30;;;;;;;18.04;38.54;99468.98;436862;1251;139113;-62
2023/05/22 18:48:24;;;;;;;4.60;3.50;;;;;;;17.69;39.30;99470.13;436901;1253;139473;-62
2023/05/22 18:58:30;;;;;;;4.20;3.70;;;;;;;17.31;40.17;99475.29;436551;1253;139048;-62
2023/05/22 19:08:36;;;;;;;4.10;2.90;;;;;;;17.08;41.15;99478.11;436743;1253;139173;-63
2023/05/22 19:18:41;;;;;;;5.20;3.00;;;;;;;16.87;41.94;99479.16;436551;1251;191160;-63
2023/05/22 19:28:47;;;;;;;5.40;3.00;;;;;;;16.57;42.59;99485.79;437035;1252;138766;-64
2023/05/22 19:38:53;;;;;;;9.60;4.40;;;;;;;16.35;43.16;99487.35;437238;1251;139353;-63
2023/05/22 19:48:59;;;;;;;6.00;3.70;;;;;;;16.18;43.64;99486.55;437329;1251;139546;-62
2023/05/22 19:59:05;;;;;;;6.30;3.50;;;;;;;16.00;44.19;99480.95;437876;1248;138830;-63
2023/05/22 20:09:11;;;;;;;3.30;2.80;;;;;;;15.82;44.55;99483.14;437592;1248;138729;-63
2023/05/22 20:19:17;;;;;;;6.90;4.80;;;;;;;15.68;44.99;99475.56;436671;1252;140351;-63
2023/05/22 20:29:23;;;;;;;5.20;3.20;;;;;;;15.57;45.32;99466.42;436763;1253;138849;-63
2023/05/22 20:39:30;;;;;;;5.00;3.30;;;;;;;15.40;45.80;99457.86;436659;1251;139662;-63
2023/05/22 20:49:37;;;;;;;7.10;4.00;;;;;;;15.24;46.19;99457.26;437492;1251;139065;-63
2023/05/22 20:59:43;;;;;;;3.70;3.30;;;;;;;15.02;46.69;99456.84;437122;1251;138525;-63
2023/05/22 21:09:48;;;;;;;3.60;3.30;;;;;;;14.82;47.21;99453.25;437087;1248;139073;-62
2023/05/22 21:19:55;;;;;;;5.80;3.70;;;;;;;14.69;47.77;99458.14;437211;1253;140153;-62
2023/05/22 21:30:01;;;;;;;5.00;3.20;;;;;;;14.55;48.16;99455.98;436991;1253;139118;-62
2023/05/22 21:40:08;;;;;;;6.00;3.50;;;;;;;14.36;48.76;99453.28;437004;1251;138661;-62
2023/05/22 21:50:14;;;;;;;5.20;3.70;;;;;;;14.16;49.25;99465.25;437819;1252;139323;-61
2023/05/22 22:00:21;;;;;;;4.40;4.00;;;;;;;14.04;49.79;99470.29;437029;1249;139766;-62
2023/05/22 22:10:27;;;;;;;6.10;3.70;;;;;;;13.94;50.24;99469.81;437798;1250;139322;-62
2023/05/22 22:20:34;;;;;;;5.00;4.30;;;;;;;13.82;50.51;99467.41;437007;1251;139104;-62
2023/05/22 22:30:53;;;;;;;5.30;4.00;;;;;;;13.70;50.99;99457.48;436899;1251;139359;-63
2023/05/22 22:40:59;;;;;;;7.90;4.20;;;;;;;13.57;51.32;99455.34;436781;1251;139338;-62
2023/05/22 22:51:05;;;;;;;7.60;4.30;;;;;;;13.42;51.77;99448.71;437020;1251;138293;-62
2023/05/22 23:01:11;;;;;;;4.80;3.70;;;;;;;13.27;52.24;99441.44;436983;1252;138563;-63
2023/05/22 23:11:17;;;;;;;5.00;4.10;;;;;;;13.11;52.69;99434.41;437139;1251;139012;-62
2023/05/22 23:21:23;;;;;;;10.20;5.00;;;;;;;12.98;53.05;99422.86;437089;1248;140141;-60
2023/05/22 23:31:30;;;;;;;5.60;4.40;;;;;;;12.85;53.57;99413.00;436881;1252;139203;-62
2023/05/22 23:41:36;;;;;;;13.70;4.60;;;;;;;12.75;53.95;99402.02;436804;1248;138980;-62
2023/05/22 23:51:42;;;;;;;10.60;4.80;;;;;;;12.62;54.27;99405.05;436686;1251;140101;-62
